Flight Track Log - Related Links

Times and Time Zones

All times are in EST time to prevent confusion due to time zone crossing. See the SWA3587 flight status page for this flight to view local times or setup timezone preferences in your user account.

Time Position Orientation Groundspeed Altitude Reporting Facility
EST Latitude Longitude Course Direction KTS MPH feet Rate Location/Type
Thu 08:49:34 AM 33.4333 -112.0000 90° East 149 171 1,900  Level Phoenix TRACON
Thu 08:50:28 AM 33.4333 -111.9500 90° East 201 231 4,000 2,368 Climbing Phoenix TRACON
Thu 08:51:28 AM 33.4333 -111.8667 90° East 259 298 6,400 2,596 Climbing Phoenix TRACON
Thu 08:52:12 AM 33.3881 -111.8447 158° South 282 325 8,500 3,058 Climbing Albuquerque Center
Thu 08:53:12 AM 33.3372 -111.9203 231° Southwest 295 339 11,700 3,471 Climbing Albuquerque Center
Thu 08:54:13 AM 33.2872 -112.0200 239° Southwest 344 396 15,500 3,689 Climbing Albuquerque Center
Thu 08:55:14 AM 33.2344 -112.1242 239° Southwest 362 417 19,200 3,443 Climbing Albuquerque Center
Thu 08:56:15 AM 33.1803 -112.2311 239° Southwest 374 430 22,500 2,826 Climbing Albuquerque Center
Thu 08:57:15 AM 33.1211 -112.3486 239° Southwest 394 453 24,900 2,132 Climbing Albuquerque Center
Thu 08:58:16 AM 33.0628 -112.4653 239° Southwest 408 470 26,800 2,951 Climbing Albuquerque Center
Thu 08:59:17 AM 33.0053 -112.5778 239° Southwest 397 457 30,900 2,557 Climbing Albuquerque Center
Thu 09:00:18 AM 32.9558 -112.6836 241° Southwest 372 428 32,000 545 Climbing Albuquerque Center
Thu 09:01:18 AM 32.9406 -112.7989 261° West 353 406 32,000  Level Albuquerque Center
Thu 09:02:19 AM 32.9242 -112.9167 261° West 359 413 32,000  Level Albuquerque Center
Thu 09:03:20 AM 32.9083 -113.0339 261° West 361 415 32,000  Level Albuquerque Center
Thu 09:04:21 AM 32.8883 -113.1742 260° West 362 417 32,000 -298 Level Albuquerque Center
Thu 09:05:21 AM 32.8728 -113.2900 261° West 360 414 31,400 -793 Descending Albuquerque Center
Thu 09:06:22 AM 32.8567 -113.4092 261° West 364 419 30,400 -689 Descending Albuquerque Center
Thu 09:07:23 AM 32.8392 -113.5286 260° West 368 423 30,000 -197 Descending Albuquerque Center
Thu 09:08:24 AM 32.8222 -113.6472 260° West 368 423 30,000  Level Albuquerque Center
Thu 09:09:25 AM 32.8053 -113.7667 260° West 368 423 30,000  Level Albuquerque Center
Thu 09:10:26 AM 32.7881 -113.8861 260° West 368 423 30,000  Level Albuquerque Center
Thu 09:11:27 AM 32.7736 -114.0069 262° West 370 426 30,000 -149 Level Albuquerque Center
Thu 09:12:27 AM 32.7739 -114.1275 270° West 367 422 29,700 -694 Descending Albuquerque Center
Thu 09:13:28 AM 32.7736 -114.2469 270° West 365 420 28,600 -1,091 Descending Albuquerque Center
Thu 09:14:28 AM 32.7714 -114.3786 269° West 353 406 27,500 -1,041 Descending Los Angeles Center
Thu 09:15:29 AM 32.7706 -114.4917 270° West 344 396 26,500 -984 Descending Los Angeles Center
Thu 09:16:30 AM 32.7694 -114.6033 269° West 340 391 25,500 -1,033 Descending Los Angeles Center
Thu 09:17:31 AM 32.7647 -114.7147 267° West 339 390 24,400 -738 Descending Los Angeles Center
Thu 09:18:32 AM 32.7644 -114.8258 270° West 337 388 24,000 -197 Descending Los Angeles Center
Thu 09:19:33 AM 32.7628 -114.9375 269° West 339 390 24,000  Level Los Angeles Center
Thu 09:20:34 AM 32.7594 -115.0497 268° West 338 389 24,000  Level Los Angeles Center
Thu 09:21:35 AM 32.7564 -115.1600 268° West 336 387 24,000  Level Los Angeles Center
Thu 09:22:36 AM 32.7561 -115.2719 270° West 338 389 24,000  Level Los Angeles Center
Thu 09:23:36 AM 32.7542 -115.3800 269° West 331 381 24,000  Level Los Angeles Center
Thu 09:24:37 AM 32.7525 -115.4897 269° West 333 383 24,000  Level Los Angeles Center
Thu 09:25:38 AM 32.7503 -115.6211 269° West 333 383 24,000 -49 Level Los Angeles Center
Thu 09:26:39 AM 32.7489 -115.7303 269° West 331 381 23,900 -984 Descending Los Angeles Center
Thu 09:27:40 AM 32.7469 -115.8381 269° West 329 379 22,000 -1,869 Descending Los Angeles Center
Thu 09:28:41 AM 32.7458 -115.9425 269° West 321 369 20,100 -1,902 Descending Los Angeles Center
Thu 09:29:43 AM 32.7436 -116.0511 269° West 325 374 18,100 -2,000 Descending Los Angeles Center
Thu 09:30:44 AM 32.7417 -116.1586 269° West 326 375 16,000 -1,967 Descending Los Angeles Center
Thu 09:31:45 AM 32.7394 -116.2644 269° West 321 369 14,100 -1,918 Descending Los Angeles Center
Thu 09:32:46 AM 32.7381 -116.3706 269° West 319 367 12,100 -1,967 Descending Los Angeles Center
Thu 09:33:47 AM 32.7356 -116.4736 268° West 313 360 10,100 -1,131 Descending Los Angeles Center
Thu 09:34:48 AM 32.7261 -116.5653 263° West 277 319 9,800 -780 Descending Los Angeles Center
Thu 09:35:50 AM 32.7142 -116.6472 260° West 254 292 8,500 -1,268 Descending Los Angeles Center
Thu 09:36:51 AM 32.7100 -116.7319 267° West 255 293 7,200 -1,180 Descending Los Angeles Center
Thu 09:37:52 AM 32.7072 -116.8122 268° West 248 285 6,100 -1,131 Descending Los Angeles Center
Thu 09:38:53 AM 32.6861 -116.8875 252° West 245 282 4,900 -757 Descending Los Angeles Center
Thu 09:39:35 AM 32.6667 -116.9333 243° Southwest 207 238 4,800 -733 Descending Southern California TRACON
Thu 09:40:23 AM 32.6833 -116.9833 292° West 178 205 3,800 -1,105 Descending Southern California TRACON
Thu 09:41:29 AM 32.7000 -117.0500 287° West 162 186 2,700 -952 Descending Southern California TRACON
Thu 09:42:29 AM 32.7167 -117.0833 301° West 137 158 1,800 -881 Descending Southern California TRACON
Thu 09:43:18 AM 32.7167 -117.1333 270° West 132 152 1,100 -791 Descending Southern California TRACON
Thu 09:44:00 AM 32.7250 -117.1522 298° West 134 154 600 -462 Descending Los Angeles Center
Thu 09:45:02 AM 32.7347 -117.1903 287° West 134 154 300 -290 Descending Los Angeles Center
Thu 09:47:00 AM 32.7333 -117.1833 North  Level FlightAware Approximate

Login

Don't have an account? Register now (free) for customized features, flight alerts, and more!